sensor_id;sensor_type;location;lat;lon;timestamp;pressure;altitude;pressure_sealevel;temperature;humidity
54936;BME280;40838;50.676;7.838;2023-02-28T00:01:39;99444.63;;;-4.16;98.30
54936;BME280;40838;50.676;7.838;2023-02-28T00:04:06;99445.47;;;-4.08;97.72
54936;BME280;40838;50.676;7.838;2023-02-28T00:06:35;99442.84;;;-3.82;97.04
54936;BME280;40838;50.676;7.838;2023-02-28T00:09:04;99442.25;;;-4.02;97.85
54936;BME280;40838;50.676;7.838;2023-02-28T00:11:30;99433.84;;;-3.87;96.69
54936;BME280;40838;50.676;7.838;2023-02-28T00:14:06;99440.19;;;-4.24;97.90
54936;BME280;40838;50.676;7.838;2023-02-28T00:16:36;99433.88;;;-4.13;97.36
54936;BME280;40838;50.676;7.838;2023-02-28T00:19:04;99430.34;;;-4.38;98.32
54936;BME280;40838;50.676;7.838;2023-02-28T00:21:30;99432.50;;;-4.00;96.81
54936;BME280;40838;50.676;7.838;2023-02-28T00:23:57;99426.78;;;-4.37;98.71
54936;BME280;40838;50.676;7.838;2023-02-28T00:26:33;99441.19;;;-4.43;99.23
54936;BME280;40838;50.676;7.838;2023-02-28T00:29:08;99433.59;;;-4.62;99.37
54936;BME280;40838;50.676;7.838;2023-02-28T00:31:35;99431.97;;;-4.11;96.94
54936;BME280;40838;50.676;7.838;2023-02-28T00:34:04;99431.84;;;-4.54;98.66
54936;BME280;40838;50.676;7.838;2023-02-28T00:36:31;99436.38;;;-4.38;97.82
54936;BME280;40838;50.676;7.838;2023-02-28T00:38:58;99437.91;;;-4.27;96.05
54936;BME280;40838;50.676;7.838;2023-02-28T00:41:35;99431.09;;;-4.20;95.46
54936;BME280;40838;50.676;7.838;2023-02-28T00:44:03;99443.88;;;-4.97;99.94
54936;BME280;40838;50.676;7.838;2023-02-28T00:46:31;99442.19;;;-4.44;97.67
54936;BME280;40838;50.676;7.838;2023-02-28T00:48:58;99438.28;;;-4.66;97.44
54936;BME280;40838;50.676;7.838;2023-02-28T00:51:36;99439.06;;;-4.22;95.84
54936;BME280;40838;50.676;7.838;2023-02-28T00:54:03;99436.59;;;-3.97;94.18
54936;BME280;40838;50.676;7.838;2023-02-28T00:56:35;99437.06;;;-4.28;94.52
54936;BME280;40838;50.676;7.838;2023-02-28T00:59:03;99437.31;;;-4.65;96.50
54936;BME280;40838;50.676;7.838;2023-02-28T01:01:32;99441.47;;;-4.72;97.11
54936;BME280;40838;50.676;7.838;2023-02-28T01:04:02;99434.78;;;-4.75;97.13
54936;BME280;40838;50.676;7.838;2023-02-28T01:06:35;99430.59;;;-4.50;95.82
54936;BME280;40838;50.676;7.838;2023-02-28T01:09:05;99435.38;;;-4.63;95.76
54936;BME280;40838;50.676;7.838;2023-02-28T01:11:36;99441.34;;;-4.71;96.83
54936;BME280;40838;50.676;7.838;2023-02-28T01:14:06;99442.13;;;-4.52;95.76
54936;BME280;40838;50.676;7.838;2023-02-28T01:16:35;99443.94;;;-4.71;96.24
54936;BME280;40838;50.676;7.838;2023-02-28T01:19:05;99447.09;;;-5.03;97.85
54936;BME280;40838;50.676;7.838;2023-02-28T01:21:32;99452.03;;;-4.74;96.43
54936;BME280;40838;50.676;7.838;2023-02-28T01:24:04;99447.69;;;-4.91;96.94
54936;BME280;40838;50.676;7.838;2023-02-28T01:26:34;99441.56;;;-4.82;97.09
54936;BME280;40838;50.676;7.838;2023-02-28T01:29:04;99440.94;;;-4.58;95.88
54936;BME280;40838;50.676;7.838;2023-02-28T01:31:32;99438.63;;;-5.05;98.38
54936;BME280;40838;50.676;7.838;2023-02-28T01:33:59;99439.13;;;-5.01;98.69
54936;BME280;40838;50.676;7.838;2023-02-28T01:36:29;99436.75;;;-5.13;98.89
54936;BME280;40838;50.676;7.838;2023-02-28T01:38:57;99437.34;;;-4.83;97.86
54936;BME280;40838;50.676;7.838;2023-02-28T01:41:28;99443.38;;;-4.82;97.47
54936;BME280;40838;50.676;7.838;2023-02-28T01:44:00;99445.25;;;-4.67;96.91
54936;BME280;40838;50.676;7.838;2023-02-28T01:46:34;99436.53;;;-4.57;96.38
54936;BME280;40838;50.676;7.838;2023-02-28T01:49:07;99440.06;;;-4.67;96.33
54936;BME280;40838;50.676;7.838;2023-02-28T01:51:44;99434.38;;;-4.88;99.25
54936;BME280;40838;50.676;7.838;2023-02-28T01:54:18;99437.16;;;-4.64;98.14
54936;BME280;40838;50.676;7.838;2023-02-28T01:56:50;99436.03;;;-4.61;98.82
54936;BME280;40838;50.676;7.838;2023-02-28T01:59:24;99432.94;;;-4.38;97.54
54936;BME280;40838;50.676;7.838;2023-02-28T02:01:53;99429.47;;;-4.73;98.78
54936;BME280;40838;50.676;7.838;2023-02-28T02:04:21;99415.75;;;-4.57;98.00
54936;BME280;40838;50.676;7.838;2023-02-28T02:06:49;99421.75;;;-4.57;97.47
54936;BME280;40838;50.676;7.838;2023-02-28T02:09:16;99423.19;;;-4.36;97.42
54936;BME280;40838;50.676;7.838;2023-02-28T02:11:44;99422.34;;;-4.11;95.79
54936;BME280;40838;50.676;7.838;2023-02-28T02:14:33;99420.31;;;-3.99;95.32
54936;BME280;40838;50.676;7.838;2023-02-28T02:17:16;99422.31;;;-3.85;94.24
54936;BME280;40838;50.676;7.838;2023-02-28T02:25:44;99406.13;;;-4.39;97.03
54936;BME280;40838;50.676;7.838;2023-02-28T02:28:36;99406.44;;;-4.42;97.52
54936;BME280;40838;50.676;7.838;2023-02-28T02:34:35;99403.44;;;-4.21;96.15
54936;BME280;40838;50.676;7.838;2023-02-28T02:37:13;99403.66;;;-4.67;99.04
54936;BME280;40838;50.676;7.838;2023-02-28T02:39:48;99400.13;;;-4.57;99.25
54936;BME280;40838;50.676;7.838;2023-02-28T02:42:23;99402.59;;;-4.56;98.01
54936;BME280;40838;50.676;7.838;2023-02-28T02:44:57;99406.19;;;-4.75;99.49
54936;BME280;40838;50.676;7.838;2023-02-28T02:47:28;99409.84;;;-4.68;98.93
54936;BME280;40838;50.676;7.838;2023-02-28T02:49:59;99398.22;;;-4.99;100.00
54936;BME280;40838;50.676;7.838;2023-02-28T02:52:38;99402.66;;;-5.10;100.00
54936;BME280;40838;50.676;7.838;2023-02-28T02:55:09;99407.06;;;-5.28;100.00
54936;BME280;40838;50.676;7.838;2023-02-28T02:57:43;99410.53;;;-5.19;100.00
54936;BME280;40838;50.676;7.838;2023-02-28T03:00:14;99415.59;;;-5.36;100.00
54936;BME280;40838;50.676;7.838;2023-02-28T03:02:47;99411.84;;;-5.51;100.00
54936;BME280;40838;50.676;7.838;2023-02-28T03:05:20;99403.53;;;-5.72;100.00
54936;BME280;40838;50.676;7.838;2023-02-28T03:07:48;99404.84;;;-5.68;100.00
54936;BME280;40838;50.676;7.838;2023-02-28T03:10:34;99411.22;;;-5.53;100.00
54936;BME280;40838;50.676;7.838;2023-02-28T03:16:35;99412.53;;;-5.49;100.00
54936;BME280;40838;50.676;7.838;2023-02-28T03:19:23;99410.63;;;-5.74;100.00
54936;BME280;40838;50.676;7.838;2023-02-28T03:22:01;99409.00;;;-5.75;100.00
54936;BME280;40838;50.676;7.838;2023-02-28T03:24:41;99405.75;;;-5.60;100.00
54936;BME280;40838;50.676;7.838;2023-02-28T03:27:15;99411.69;;;-5.67;100.00
54936;BME280;40838;50.676;7.838;2023-02-28T03:29:47;99412.00;;;-5.70;100.00
54936;BME280;40838;50.676;7.838;2023-02-28T03:32:19;99418.31;;;-5.83;100.00
54936;BME280;40838;50.676;7.838;2023-02-28T03:34:51;99417.59;;;-5.75;100.00
54936;BME280;40838;50.676;7.838;2023-02-28T03:37:22;99409.81;;;-5.75;100.00
54936;BME280;40838;50.676;7.838;2023-02-28T03:39:55;99410.53;;;-5.37;100.00
54936;BME280;40838;50.676;7.838;2023-02-28T03:42:25;99417.19;;;-5.70;100.00
54936;BME280;40838;50.676;7.838;2023-02-28T03:44:57;99407.19;;;-5.93;100.00
54936;BME280;40838;50.676;7.838;2023-02-28T03:47:29;99410.69;;;-5.84;100.00
54936;BME280;40838;50.676;7.838;2023-02-28T03:50:05;99413.91;;;-5.72;100.00
54936;BME280;40838;50.676;7.838;2023-02-28T03:52:42;99415.88;;;-5.84;100.00
54936;BME280;40838;50.676;7.838;2023-02-28T03:55:13;99413.47;;;-5.95;100.00
54936;BME280;40838;50.676;7.838;2023-02-28T03:57:50;99410.06;;;-5.50;100.00
54936;BME280;40838;50.676;7.838;2023-02-28T04:00:27;99413.63;;;-5.97;100.00
54936;BME280;40838;50.676;7.838;2023-02-28T04:02:56;99406.38;;;-5.48;100.00
54936;BME280;40838;50.676;7.838;2023-02-28T04:05:23;99407.44;;;-5.68;100.00
54936;BME280;40838;50.676;7.838;2023-02-28T04:07:52;99406.94;;;-5.72;100.00
54936;BME280;40838;50.676;7.838;2023-02-28T04:10:19;99412.06;;;-5.62;100.00
54936;BME280;40838;50.676;7.838;2023-02-28T04:12:46;99412.56;;;-5.76;100.00
54936;BME280;40838;50.676;7.838;2023-02-28T04:15:13;99410.22;;;-5.70;100.00
54936;BME280;40838;50.676;7.838;2023-02-28T04:17:42;99411.72;;;-5.77;100.00
54936;BME280;40838;50.676;7.838;2023-02-28T04:20:10;99406.50;;;-5.95;100.00
54936;BME280;40838;50.676;7.838;2023-02-28T04:22:37;99413.19;;;-5.65;99.12
54936;BME280;40838;50.676;7.838;2023-02-28T04:25:06;99406.41;;;-5.75;99.45
54936;BME280;40838;50.676;7.838;2023-02-28T04:27:35;99415.97;;;-6.04;100.00
54936;BME280;40838;50.676;7.838;2023-02-28T04:30:07;99410.81;;;-5.86;100.00
54936;BME280;40838;50.676;7.838;2023-02-28T04:32:35;99418.59;;;-6.13;100.00
54936;BME280;40838;50.676;7.838;2023-02-28T04:35:02;99413.00;;;-6.18;100.00
54936;BME280;40838;50.676;7.838;2023-02-28T04:37:29;99421.25;;;-6.33;100.00
54936;BME280;40838;50.676;7.838;2023-02-28T04:40:01;99422.81;;;-6.50;100.00
54936;BME280;40838;50.676;7.838;2023-02-28T04:42:29;99413.69;;;-5.89;100.00
54936;BME280;40838;50.676;7.838;2023-02-28T04:45:03;99416.97;;;-6.14;100.00
54936;BME280;40838;50.676;7.838;2023-02-28T04:47:31;99425.59;;;-6.24;100.00
54936;BME280;40838;50.676;7.838;2023-02-28T04:49:58;99421.75;;;-6.19;100.00
54936;BME280;40838;50.676;7.838;2023-02-28T04:52:27;99418.94;;;-6.26;100.00
54936;BME280;40838;50.676;7.838;2023-02-28T04:54:54;99424.19;;;-6.08;99.37
54936;BME280;40838;50.676;7.838;2023-02-28T04:57:21;99422.34;;;-6.26;100.00
54936;BME280;40838;50.676;7.838;2023-02-28T04:59:51;99428.38;;;-6.35;100.00
54936;BME280;40838;50.676;7.838;2023-02-28T05:02:18;99420.75;;;-6.46;100.00
54936;BME280;40838;50.676;7.838;2023-02-28T05:04:49;99417.75;;;-6.51;100.00
54936;BME280;40838;50.676;7.838;2023-02-28T05:07:15;99417.19;;;-6.45;100.00
54936;BME280;40838;50.676;7.838;2023-02-28T05:09:42;99423.34;;;-6.46;100.00
54936;BME280;40838;50.676;7.838;2023-02-28T05:12:11;99417.88;;;-6.43;100.00
54936;BME280;40838;50.676;7.838;2023-02-28T05:14:39;99418.28;;;-6.48;100.00
54936;BME280;40838;50.676;7.838;2023-02-28T05:17:09;99421.13;;;-6.31;100.00
54936;BME280;40838;50.676;7.838;2023-02-28T05:19:39;99426.16;;;-6.20;99.67
54936;BME280;40838;50.676;7.838;2023-02-28T05:22:13;99418.03;;;-6.07;98.87
54936;BME280;40838;50.676;7.838;2023-02-28T05:24:41;99417.28;;;-6.27;99.53
54936;BME280;40838;50.676;7.838;2023-02-28T05:27:10;99422.44;;;-5.62;96.66
54936;BME280;40838;50.676;7.838;2023-02-28T05:29:37;99429.66;;;-6.11;98.21
54936;BME280;40838;50.676;7.838;2023-02-28T05:32:10;99432.91;;;-6.09;99.01
54936;BME280;40838;50.676;7.838;2023-02-28T05:34:38;99432.44;;;-5.95;97.50
54936;BME280;40838;50.676;7.838;2023-02-28T05:37:05;99434.28;;;-5.78;95.97
54936;BME280;40838;50.676;7.838;2023-02-28T05:39:34;99436.75;;;-6.60;100.00
54936;BME280;40838;50.676;7.838;2023-02-28T05:42:00;99436.34;;;-6.85;100.00
54936;BME280;40838;50.676;7.838;2023-02-28T05:44:28;99435.53;;;-6.85;100.00
54936;BME280;40838;50.676;7.838;2023-02-28T05:46:55;99439.50;;;-6.72;100.00
54936;BME280;40838;50.676;7.838;2023-02-28T05:49:24;99433.03;;;-6.48;100.00
54936;BME280;40838;50.676;7.838;2023-02-28T05:51:50;99437.47;;;-6.87;100.00
54936;BME280;40838;50.676;7.838;2023-02-28T05:54:17;99433.34;;;-6.80;100.00
54936;BME280;40838;50.676;7.838;2023-02-28T05:56:44;99436.88;;;-6.62;100.00
54936;BME280;40838;50.676;7.838;2023-02-28T05:59:11;99439.09;;;-6.86;100.00
54936;BME280;40838;50.676;7.838;2023-02-28T06:01:39;99430.91;;;-7.01;100.00
54936;BME280;40838;50.676;7.838;2023-02-28T06:04:10;99435.84;;;-7.08;100.00
54936;BME280;40838;50.676;7.838;2023-02-28T06:06:40;99429.25;;;-6.63;100.00
54936;BME280;40838;50.676;7.838;2023-02-28T06:09:09;99441.25;;;-6.62;100.00
54936;BME280;40838;50.676;7.838;2023-02-28T06:11:38;99434.16;;;-6.60;99.57
54936;BME280;40838;50.676;7.838;2023-02-28T06:14:05;99433.25;;;-6.22;98.12
54936;BME280;40838;50.676;7.838;2023-02-28T06:16:36;99441.16;;;-6.24;97.58
54936;BME280;40838;50.676;7.838;2023-02-28T06:19:03;99437.09;;;-6.36;97.55
54936;BME280;40838;50.676;7.838;2023-02-28T06:21:30;99437.03;;;-6.16;96.52
54936;BME280;40838;50.676;7.838;2023-02-28T06:23:59;99440.22;;;-6.32;97.26
54936;BME280;40838;50.676;7.838;2023-02-28T06:26:26;99434.13;;;-6.41;97.00
54936;BME280;40838;50.676;7.838;2023-02-28T06:28:59;99437.16;;;-5.81;94.12
54936;BME280;40838;50.676;7.838;2023-02-28T06:31:26;99445.13;;;-5.92;94.26
54936;BME280;40838;50.676;7.838;2023-02-28T06:33:54;99454.22;;;-6.06;95.38
54936;BME280;40838;50.676;7.838;2023-02-28T06:36:22;99456.03;;;-5.79;93.48
54936;BME280;40838;50.676;7.838;2023-02-28T06:38:49;99457.53;;;-5.86;93.21
54936;BME280;40838;50.676;7.838;2023-02-28T06:41:22;99449.31;;;-5.53;91.65
54936;BME280;40838;50.676;7.838;2023-02-28T06:43:50;99454.50;;;-5.53;91.21
54936;BME280;40838;50.676;7.838;2023-02-28T06:46:18;99455.50;;;-5.92;92.54
54936;BME280;40838;50.676;7.838;2023-02-28T06:48:45;99464.16;;;-5.64;92.03
54936;BME280;40838;50.676;7.838;2023-02-28T06:51:14;99460.00;;;-5.29;91.02
54936;BME280;40838;50.676;7.838;2023-02-28T06:53:42;99464.72;;;-5.24;88.80
54936;BME280;40838;50.676;7.838;2023-02-28T06:56:13;99464.06;;;-5.26;89.75
54936;BME280;40838;50.676;7.838;2023-02-28T06:58:41;99472.78;;;-5.00;88.46
54936;BME280;40838;50.676;7.838;2023-02-28T07:01:09;99469.41;;;-5.10;87.98
54936;BME280;40838;50.676;7.838;2023-02-28T07:03:36;99469.38;;;-5.46;89.21
54936;BME280;40838;50.676;7.838;2023-02-28T07:06:05;99480.69;;;-5.19;87.50
54936;BME280;40838;50.676;7.838;2023-02-28T07:08:33;99471.28;;;-5.48;87.56
54936;BME280;40838;50.676;7.838;2023-02-28T07:11:05;99474.31;;;-4.53;84.23
54936;BME280;40838;50.676;7.838;2023-02-28T07:13:35;99471.50;;;-4.08;82.47
54936;BME280;40838;50.676;7.838;2023-02-28T07:16:05;99483.75;;;-4.26;81.10
54936;BME280;40838;50.676;7.838;2023-02-28T07:18:35;99482.47;;;-3.96;80.21
54936;BME280;40838;50.676;7.838;2023-02-28T07:21:02;99480.69;;;-3.61;78.31
54936;BME280;40838;50.676;7.838;2023-02-28T07:23:36;99478.38;;;-3.22;72.59
54936;BME280;40838;50.676;7.838;2023-02-28T07:26:05;99483.97;;;-3.59;73.03
54936;BME280;40838;50.676;7.838;2023-02-28T07:28:32;99464.06;;;-2.85;71.05
54936;BME280;40838;50.676;7.838;2023-02-28T07:31:05;99478.50;;;-1.45;61.77
54936;BME280;40838;50.676;7.838;2023-02-28T07:33:33;99469.63;;;0.39;52.66
54936;BME280;40838;50.676;7.838;2023-02-28T07:36:01;99471.44;;;0.38;51.60
54936;BME280;40838;50.676;7.838;2023-02-28T07:38:28;99467.94;;;-0.37;52.80
54936;BME280;40838;50.676;7.838;2023-02-28T07:40:56;99473.53;;;-1.32;54.89
54936;BME280;40838;50.676;7.838;2023-02-28T07:43:23;99471.09;;;0.26;52.52
54936;BME280;40838;50.676;7.838;2023-02-28T07:45:50;99467.28;;;0.29;48.86
54936;BME280;40838;50.676;7.838;2023-02-28T07:48:20;99457.81;;;-0.40;50.68
54936;BME280;40838;50.676;7.838;2023-02-28T07:50:57;99449.22;;;1.13;46.63
54936;BME280;40838;50.676;7.838;2023-02-28T07:53:24;99458.72;;;2.27;43.38
54936;BME280;40838;50.676;7.838;2023-02-28T07:55:54;99452.16;;;3.72;38.56
54936;BME280;40838;50.676;7.838;2023-02-28T07:58:23;99462.53;;;2.24;40.18
54936;BME280;40838;50.676;7.838;2023-02-28T08:00:50;99458.25;;;3.46;38.57
54936;BME280;40838;50.676;7.838;2023-02-28T08:03:19;99460.81;;;2.93;39.38
54936;BME280;40838;50.676;7.838;2023-02-28T08:05:48;99459.19;;;2.92;37.26
54936;BME280;40838;50.676;7.838;2023-02-28T08:08:17;99450.13;;;3.34;37.34
54936;BME280;40838;50.676;7.838;2023-02-28T08:10:44;99454.94;;;2.97;37.53
54936;BME280;40838;50.676;7.838;2023-02-28T08:13:12;99454.00;;;0.67;41.00
54936;BME280;40838;50.676;7.838;2023-02-28T08:15:40;99452.78;;;2.46;38.03
54936;BME280;40838;50.676;7.838;2023-02-28T08:18:08;99451.63;;;1.86;38.93
54936;BME280;40838;50.676;7.838;2023-02-28T08:20:39;99456.19;;;3.21;36.57
54936;BME280;40838;50.676;7.838;2023-02-28T08:23:06;99445.22;;;3.84;36.02
54936;BME280;40838;50.676;7.838;2023-02-28T08:25:34;99457.97;;;0.99;39.02
54936;BME280;40838;50.676;7.838;2023-02-28T08:28:01;99442.97;;;2.33;38.03
54936;BME280;40838;50.676;7.838;2023-02-28T08:30:28;99447.38;;;2.68;36.15
54936;BME280;40838;50.676;7.838;2023-02-28T08:32:55;99455.97;;;1.44;38.13
54936;BME280;40838;50.676;7.838;2023-02-28T08:35:22;99445.72;;;2.12;37.39
54936;BME280;40838;50.676;7.838;2023-02-28T08:37:50;99441.94;;;2.76;35.13
54936;BME280;40838;50.676;7.838;2023-02-28T08:40:17;99453.34;;;1.01;37.07
54936;BME280;40838;50.676;7.838;2023-02-28T08:42:44;99438.34;;;1.94;35.07
54936;BME280;40838;50.676;7.838;2023-02-28T08:45:11;99449.50;;;0.97;36.92
54936;BME280;40838;50.676;7.838;2023-02-28T08:47:40;99458.63;;;0.65;36.99
54936;BME280;40838;50.676;7.838;2023-02-28T08:50:08;99450.44;;;2.30;36.12
54936;BME280;40838;50.676;7.838;2023-02-28T08:52:37;99460.53;;;0.92;35.96
54936;BME280;40838;50.676;7.838;2023-02-28T08:55:08;99464.22;;;0.98;37.23
54936;BME280;40838;50.676;7.838;2023-02-28T08:57:37;99453.94;;;1.18;37.24
54936;BME280;40838;50.676;7.838;2023-02-28T09:00:07;99448.59;;;1.33;35.79
54936;BME280;40838;50.676;7.838;2023-02-28T09:02:38;99449.91;;;2.41;34.84
54936;BME280;40838;50.676;7.838;2023-02-28T09:05:06;99458.22;;;1.04;35.48
54936;BME280;40838;50.676;7.838;2023-02-28T09:07:33;99448.09;;;2.42;34.66
54936;BME280;40838;50.676;7.838;2023-02-28T09:10:00;99457.50;;;0.52;35.86
54936;BME280;40838;50.676;7.838;2023-02-28T09:12:33;99468.44;;;0.56;35.93
54936;BME280;40838;50.676;7.838;2023-02-28T09:15:03;99441.84;;;1.73;34.05
54936;BME280;40838;50.676;7.838;2023-02-28T09:17:30;99457.84;;;1.07;35.84
54936;BME280;40838;50.676;7.838;2023-02-28T09:19:56;99453.59;;;2.47;32.88
54936;BME280;40838;50.676;7.838;2023-02-28T09:22:24;99443.38;;;0.53;33.97
54936;BME280;40838;50.676;7.838;2023-02-28T09:24:50;99453.59;;;1.77;34.47
54936;BME280;40838;50.676;7.838;2023-02-28T09:27:19;99451.56;;;1.23;34.78
54936;BME280;40838;50.676;7.838;2023-02-28T09:29:55;99452.75;;;3.07;32.51
54936;BME280;40838;50.676;7.838;2023-02-28T09:32:21;99454.34;;;3.15;31.24
54936;BME280;40838;50.676;7.838;2023-02-28T09:34:48;99458.91;;;2.60;32.36
54936;BME280;40838;50.676;7.838;2023-02-28T09:37:15;99467.69;;;2.39;32.13
54936;BME280;40838;50.676;7.838;2023-02-28T09:39:42;99495.81;;;0.90;33.71
54936;BME280;40838;50.676;7.838;2023-02-28T09:42:18;99463.28;;;0.48;33.71
54936;BME280;40838;50.676;7.838;2023-02-28T09:44:48;99496.09;;;-0.01;33.79
54936;BME280;40838;50.676;7.838;2023-02-28T09:47:29;99467.66;;;0.77;33.37
54936;BME280;40838;50.676;7.838;2023-02-28T09:50:00;99473.72;;;0.11;33.71
54936;BME280;40838;50.676;7.838;2023-02-28T09:52:31;99471.16;;;1.27;32.89
54936;BME280;40838;50.676;7.838;2023-02-28T09:55:04;99463.63;;;2.36;31.59
54936;BME280;40838;50.676;7.838;2023-02-28T09:57:45;99458.16;;;1.97;31.50
54936;BME280;40838;50.676;7.838;2023-02-28T10:00:17;99458.88;;;1.84;32.59
54936;BME280;40838;50.676;7.838;2023-02-28T10:03:06;99475.13;;;1.38;32.00
54936;BME280;40838;50.676;7.838;2023-02-28T10:05:41;99462.94;;;2.56;32.49
54936;BME280;40838;50.676;7.838;2023-02-28T10:08:14;99461.25;;;3.29;29.58
54936;BME280;40838;50.676;7.838;2023-02-28T10:10:45;99472.88;;;2.26;31.58
54936;BME280;40838;50.676;7.838;2023-02-28T10:13:20;99452.41;;;4.42;30.20
54936;BME280;40838;50.676;7.838;2023-02-28T10:15:52;99459.06;;;2.10;30.54
54936;BME280;40838;50.676;7.838;2023-02-28T10:18:27;99461.34;;;0.93;34.51
54936;BME280;40838;50.676;7.838;2023-02-28T10:20:57;99456.78;;;3.03;30.02
54936;BME280;40838;50.676;7.838;2023-02-28T10:23:28;99445.25;;;3.11;32.07
54936;BME280;40838;50.676;7.838;2023-02-28T10:26:01;99458.03;;;3.34;29.92
54936;BME280;40838;50.676;7.838;2023-02-28T10:28:32;99448.84;;;2.35;31.14
54936;BME280;40838;50.676;7.838;2023-02-28T10:30:59;99443.59;;;3.90;29.48
54936;BME280;40838;50.676;7.838;2023-02-28T10:33:29;99451.31;;;3.65;30.92
54936;BME280;40838;50.676;7.838;2023-02-28T10:35:57;99439.09;;;2.64;30.79
54936;BME280;40838;50.676;7.838;2023-02-28T10:38:26;99440.75;;;3.85;29.12
54936;BME280;40838;50.676;7.838;2023-02-28T10:41:04;99446.47;;;3.68;29.71
54936;BME280;40838;50.676;7.838;2023-02-28T10:43:33;99448.97;;;2.55;31.51
54936;BME280;40838;50.676;7.838;2023-02-28T10:46:03;99462.81;;;1.17;32.19
54936;BME280;40838;50.676;7.838;2023-02-28T10:48:37;99435.81;;;2.14;32.19
54936;BME280;40838;50.676;7.838;2023-02-28T10:51:05;99452.41;;;0.51;34.12
54936;BME280;40838;50.676;7.838;2023-02-28T10:53:37;99466.00;;;1.90;32.68
54936;BME280;40838;50.676;7.838;2023-02-28T10:56:14;99437.91;;;2.25;31.80
54936;BME280;40838;50.676;7.838;2023-02-28T10:58:48;99442.94;;;1.85;31.75
54936;BME280;40838;50.676;7.838;2023-02-28T11:01:17;99438.63;;;2.54;31.35
54936;BME280;40838;50.676;7.838;2023-02-28T11:03:46;99426.81;;;3.64;29.59
54936;BME280;40838;50.676;7.838;2023-02-28T11:06:18;99447.16;;;4.22;30.05
54936;BME280;40838;50.676;7.838;2023-02-28T11:08:49;99441.22;;;3.48;29.85
54936;BME280;40838;50.676;7.838;2023-02-28T11:11:17;99440.00;;;2.02;30.90
54936;BME280;40838;50.676;7.838;2023-02-28T11:13:47;99437.84;;;2.18;31.61
54936;BME280;40838;50.676;7.838;2023-02-28T11:16:17;99440.19;;;3.63;29.97
54936;BME280;40838;50.676;7.838;2023-02-28T11:18:49;99436.63;;;4.29;29.58
54936;BME280;40838;50.676;7.838;2023-02-28T11:21:21;99443.00;;;3.88;29.32
54936;BME280;40838;50.676;7.838;2023-02-28T11:23:51;99395.38;;;3.69;29.40
54936;BME280;40838;50.676;7.838;2023-02-28T11:26:39;99434.69;;;3.84;29.31
54936;BME280;40838;50.676;7.838;2023-02-28T11:29:11;99444.84;;;3.67;29.47
54936;BME280;40838;50.676;7.838;2023-02-28T11:31:38;99446.16;;;1.53;32.51
54936;BME280;40838;50.676;7.838;2023-02-28T11:37:11;99444.19;;;1.61;33.15
54936;BME280;40838;50.676;7.838;2023-02-28T11:39:38;99453.03;;;2.16;32.78
54936;BME280;40838;50.676;7.838;2023-02-28T11:42:15;99450.59;;;1.52;34.19
54936;BME280;40838;50.676;7.838;2023-02-28T11:44:56;99445.69;;;2.05;34.11
54936;BME280;40838;50.676;7.838;2023-02-28T11:47:33;99448.81;;;0.37;36.65
54936;BME280;40838;50.676;7.838;2023-02-28T11:50:20;99443.34;;;1.33;35.39
54936;BME280;40838;50.676;7.838;2023-02-28T11:52:52;99457.16;;;0.77;35.58
54936;BME280;40838;50.676;7.838;2023-02-28T11:55:26;99451.88;;;-0.19;37.28
54936;BME280;40838;50.676;7.838;2023-02-28T11:58:11;99455.06;;;-0.61;38.98
54936;BME280;40838;50.676;7.838;2023-02-28T12:01:09;99453.56;;;-0.41;38.95
54936;BME280;40838;50.676;7.838;2023-02-28T12:03:48;99455.19;;;-0.02;37.68
54936;BME280;40838;50.676;7.838;2023-02-28T12:06:22;99451.34;;;-0.29;38.10
54936;BME280;40838;50.676;7.838;2023-02-28T12:09:02;99445.94;;;0.47;36.93
54936;BME280;40838;50.676;7.838;2023-02-28T12:11:41;99441.31;;;-0.25;40.11
54936;BME280;40838;50.676;7.838;2023-02-28T12:14:44;99444.88;;;-0.03;37.89
54936;BME280;40838;50.676;7.838;2023-02-28T12:17:32;99438.72;;;0.70;37.81
54936;BME280;40838;50.676;7.838;2023-02-28T12:20:12;99431.31;;;1.45;37.50
54936;BME280;40838;50.676;7.838;2023-02-28T12:22:51;99446.09;;;-0.29;39.38
54936;BME280;40838;50.676;7.838;2023-02-28T12:25:49;99447.38;;;0.20;41.11
54936;BME280;40838;50.676;7.838;2023-02-28T12:28:23;99436.31;;;-0.50;40.86
54936;BME280;40838;50.676;7.838;2023-02-28T12:30:57;99430.50;;;-0.60;40.53
54936;BME280;40838;50.676;7.838;2023-02-28T12:33:33;99431.06;;;0.03;39.80
54936;BME280;40838;50.676;7.838;2023-02-28T12:36:05;99429.03;;;-0.10;38.91
54936;BME280;40838;50.676;7.838;2023-02-28T12:38:38;99422.91;;;-0.17;40.50
54936;BME280;40838;50.676;7.838;2023-02-28T12:41:12;99426.31;;;0.28;39.33
54936;BME280;40838;50.676;7.838;2023-02-28T12:43:43;99410.06;;;1.40;38.01
54936;BME280;40838;50.676;7.838;2023-02-28T12:46:15;99417.16;;;1.39;39.52
54936;BME280;40838;50.676;7.838;2023-02-28T12:48:48;99408.38;;;1.25;38.22
54936;BME280;40838;50.676;7.838;2023-02-28T12:51:19;99418.97;;;1.39;37.89
54936;BME280;40838;50.676;7.838;2023-02-28T12:54:04;99428.31;;;0.41;39.10
54936;BME280;40838;50.676;7.838;2023-02-28T12:56:42;99433.09;;;-0.22;40.20
54936;BME280;40838;50.676;7.838;2023-02-28T12:59:18;99418.00;;;0.39;38.74
54936;BME280;40838;50.676;7.838;2023-02-28T13:02:02;99427.91;;;0.58;39.57
54936;BME280;40838;50.676;7.838;2023-02-28T13:04:53;99422.72;;;-0.01;40.28
54936;BME280;40838;50.676;7.838;2023-02-28T13:07:45;99410.13;;;0.97;39.94
54936;BME280;40838;50.676;7.838;2023-02-28T13:10:18;99401.06;;;1.21;38.94
54936;BME280;40838;50.676;7.838;2023-02-28T13:12:51;99395.06;;;1.55;40.29
54936;BME280;40838;50.676;7.838;2023-02-28T13:15:27;99394.44;;;1.03;39.76
54936;BME280;40838;50.676;7.838;2023-02-28T13:17:56;99390.41;;;0.79;39.08
54936;BME280;40838;50.676;7.838;2023-02-28T13:20:26;99390.81;;;1.26;39.12
54936;BME280;40838;50.676;7.838;2023-02-28T13:22:55;99390.78;;;0.76;38.34
54936;BME280;40838;50.676;7.838;2023-02-28T13:25:50;99389.13;;;1.46;38.52
54936;BME280;40838;50.676;7.838;2023-02-28T13:31:27;99393.94;;;1.15;38.85
54936;BME280;40838;50.676;7.838;2023-02-28T13:34:12;99393.09;;;1.36;38.29
54936;BME280;40838;50.676;7.838;2023-02-28T13:36:40;99384.44;;;1.14;39.23
54936;BME280;40838;50.676;7.838;2023-02-28T13:42:32;99381.09;;;1.89;37.83
54936;BME280;40838;50.676;7.838;2023-02-28T13:45:24;99389.53;;;0.36;38.86
54936;BME280;40838;50.676;7.838;2023-02-28T13:47:55;99380.88;;;0.57;40.43